Time;durP1;ratioP1;P1;durP2;ratioP2;P2;SDS_P1;SDS_P2;PMS_P1;PMS_P2;Temp;Humidity;BMP_temperature;BMP_pressure;BME280_temperature;BME280_humidity;BME280_pressure;Samples;Min_cycle;Max_cycle;Signal;HPM_P1;HPM_P2
2023/09/16 00:00:52;;;;;;;;;;;18.60;60.20;;;14.51;100.00;95401.63;5012659;28;20339;-53
2023/09/16 00:03:19;;;;;;;;;;;18.60;60.30;;;14.50;100.00;95410.72;4988467;28;20474;-50
2023/09/16 00:05:48;;;;;;;;;;;18.60;60.30;;;14.47;100.00;95409.41;5012762;28;19917;-47
2023/09/16 00:08:19;;;;;;;;;;;18.60;60.40;;;14.43;100.00;95405.72;5012405;28;19916;-48
2023/09/16 00:10:51;;;;;;;;;;;18.60;60.40;;;14.39;100.00;95410.09;5002116;28;19920;-47
2023/09/16 00:13:33;;;;;;;;;;;18.60;60.40;;;14.37;100.00;95408.78;5011672;28;19970;-47
2023/09/16 00:15:59;;;;;;;;;;;18.50;60.40;;;14.37;100.00;95406.09;5004814;28;19917;-45
2023/09/16 00:18:27;;;;;;;;;;;18.50;60.40;;;14.36;100.00;95418.72;5009286;28;19909;-47
2023/09/16 00:20:56;;;;;;;;;;;18.50;60.50;;;14.38;100.00;95416.53;5007646;28;19910;-49
2023/09/16 00:23:28;;;;;;;;;;;18.50;60.50;;;14.40;100.00;95421.59;5011178;28;20008;-51
2023/09/16 00:25:58;;;;;;;;;;;18.50;60.60;;;14.37;100.00;95406.91;5007953;28;19943;-53
2023/09/16 00:28:27;;;;;;;;;;;18.50;60.60;;;14.37;100.00;95417.63;5007971;28;19913;-52
2023/09/16 00:31:06;;;;;;;;;;;18.50;60.70;;;14.37;100.00;95420.28;5012409;28;19913;-52
2023/09/16 00:33:39;;;;;;;;;;;18.50;60.70;;;14.39;100.00;95409.31;5005042;28;19908;-49
2023/09/16 00:36:05;;;;;;;;;;;18.50;60.90;;;14.39;100.00;95415.47;5012290;28;19909;-52
2023/09/16 00:38:31;;;;;;;;;;;18.50;60.90;;;14.40;100.00;95411.69;5001350;28;19944;-52
2023/09/16 00:40:57;;;;;;;;;;;18.50;61.00;;;14.41;100.00;95413.25;5004161;28;20006;-50
2023/09/16 00:43:23;;;;;;;;;;;18.40;60.90;;;14.43;100.00;95416.44;4994234;28;20000;-54
2023/09/16 00:45:49;;;;;;;;;;;18.50;61.10;;;14.40;100.00;95417.03;4990329;28;19913;-51
2023/09/16 00:48:18;;;;;;;;;;;18.50;61.10;;;14.41;100.00;95420.50;5012033;28;19915;-52
2023/09/16 00:50:46;;;;;;;;;;;18.50;61.20;;;14.44;100.00;95431.44;5007578;28;19924;-45
2023/09/16 00:53:15;;;;;;;;;;;18.50;61.30;;;14.48;100.00;95426.31;4991725;28;20375;-52
2023/09/16 00:55:43;;;;;;;;;;;18.50;61.30;;;14.53;100.00;95427.03;4990089;28;20433;-47
2023/09/16 00:58:11;;;;;;;;;;;18.60;61.50;;;14.57;100.00;95421.88;4987907;28;20019;-51
2023/09/16 01:00:38;;;;;;;;;;;18.60;61.50;;;14.60;100.00;95425.84;5011854;28;19959;-51
2023/09/16 01:03:04;;;;;;;;;;;18.60;61.50;;;14.62;100.00;95435.19;4990786;28;20322;-48
2023/09/16 01:05:30;;;;;;;;;;;18.70;61.50;;;14.64;100.00;95437.59;5011184;28;19916;-51
2023/09/16 01:07:57;;;;;;;;;;;18.70;61.50;;;14.68;100.00;95435.91;5011797;28;19954;-49
2023/09/16 01:10:23;;;;;;;;;;;18.80;61.60;;;14.68;100.00;95441.28;4999292;28;19928;-53
2023/09/16 01:12:54;;;;;;;;;;;18.80;61.60;;;14.70;100.00;95431.88;5011329;28;19909;-49
2023/09/16 01:15:22;;;;;;;;;;;18.80;61.60;;;14.71;100.00;95430.75;5003966;28;20292;-45
2023/09/16 01:18:19;;;;;;;;;;;18.90;61.60;;;14.76;100.00;95432.56;4994066;28;20292;-48
2023/09/16 01:20:47;;;;;;;;;;;18.90;61.60;;;14.81;100.00;95435.94;4993229;28;19916;-50
2023/09/16 01:23:19;;;;;;;;;;;19.00;61.70;;;14.84;100.00;95431.88;5011047;28;19978;-48
2023/09/16 01:25:45;;;;;;;;;;;19.00;61.80;;;14.87;100.00;95430.50;5006865;28;19909;-47
2023/09/16 01:28:11;;;;;;;;;;;19.00;61.80;;;14.89;100.00;95429.13;5004206;28;19979;-47
2023/09/16 01:30:44;;;;;;;;;;;19.00;61.80;;;14.90;100.00;95424.56;5011041;28;19917;-48
2023/09/16 01:33:27;;;;;;;;;;;19.00;62.00;;;14.98;100.00;95438.09;4986650;28;19917;-48
2023/09/16 01:36:07;;;;;;;;;;;19.10;62.00;;;15.04;100.00;95434.22;4994213;28;20360;-48
2023/09/16 01:38:37;;;;;;;;;;;19.10;62.10;;;15.05;100.00;95432.31;5004377;28;20019;-48
2023/09/16 01:41:07;;;;;;;;;;;19.10;62.10;;;15.04;100.00;95433.41;4987172;28;19999;-47
2023/09/16 01:43:33;;;;;;;;;;;19.20;62.00;;;15.08;100.00;95433.63;4989005;28;19916;-51
2023/09/16 01:45:59;;;;;;;;;;;19.20;62.10;;;15.10;100.00;95428.75;4989789;28;20082;-52
2023/09/16 01:48:25;;;;;;;;;;;19.20;62.10;;;15.13;100.00;95425.47;5010958;28;20012;-50
2023/09/16 01:50:51;;;;;;;;;;;19.20;62.20;;;15.14;100.00;95427.88;5005654;28;19917;-49
2023/09/16 01:53:17;;;;;;;;;;;19.30;62.30;;;15.18;100.00;95420.03;5008732;28;19909;-52
2023/09/16 01:55:42;;;;;;;;;;;19.30;62.30;;;15.20;100.00;95418.63;5010753;28;19913;-48
2023/09/16 01:58:08;;;;;;;;;;;19.30;62.30;;;15.24;100.00;95426.88;4994006;28;19913;-49
2023/09/16 02:00:35;;;;;;;;;;;19.30;62.30;;;15.25;100.00;95420.41;4974029;28;19917;-51
2023/09/16 02:03:01;;;;;;;;;;;19.30;62.30;;;15.26;100.00;95422.00;4989953;28;19913;-51
2023/09/16 02:05:27;;;;;;;;;;;19.40;62.40;;;15.27;100.00;95420.91;4990965;28;20382;-50
2023/09/16 02:07:52;;;;;;;;;;;19.40;62.40;;;15.27;100.00;95420.91;4990624;28;20431;-50
2023/09/16 02:10:18;;;;;;;;;;;19.40;62.40;;;15.29;100.00;95418.72;4984843;28;19967;-51
2023/09/16 02:12:44;;;;;;;;;;;19.40;62.30;;;15.29;100.00;95421.41;4990556;28;19949;-51
2023/09/16 02:15:10;;;;;;;;;;;19.40;62.30;;;15.28;100.00;95419.81;4990004;28;19921;-52
2023/09/16 02:17:41;;;;;;;;;;;19.50;62.40;;;15.28;100.00;95425.97;4990730;28;19959;-49
2023/09/16 02:20:12;;;;;;;;;;;19.40;62.40;;;15.30;100.00;95423.00;4993814;28;19909;-49
2023/09/16 02:22:40;;;;;;;;;;;19.40;62.40;;;15.33;100.00;95418.94;4989753;28;19937;-48
2023/09/16 02:25:06;;;;;;;;;;;19.50;62.50;;;15.34;100.00;95417.84;4990772;28;19917;-46
2023/09/16 02:27:33;;;;;;;;;;;19.50;62.60;;;15.33;100.00;95421.63;4990005;28;19914;-48
2023/09/16 02:29:58;;;;;;;;;;;19.50;62.60;;;15.32;100.00;95426.16;4990773;28;19918;-48
2023/09/16 02:32:24;;;;;;;;;;;19.50;62.60;;;15.28;100.00;95423.28;4990133;28;19916;-47
2023/09/16 02:34:50;;;;;;;;;;;19.50;62.70;;;15.29;100.00;95421.41;4991048;28;19909;-46
2023/09/16 02:37:16;;;;;;;;;;;19.40;63.50;;;15.30;100.00;95419.53;4990778;28;19941;-51
2023/09/16 02:39:41;;;;;;;;;;;19.40;62.70;;;15.29;100.00;95416.03;4991216;28;20394;-52
2023/09/16 02:42:07;;;;;;;;;;;19.50;62.80;;;15.27;100.00;95415.56;4990369;28;19909;-52
2023/09/16 02:44:33;;;;;;;;;;;19.40;62.80;;;15.29;100.00;95410.66;4989914;28;19915;-53
2023/09/16 02:46:58;;;;;;;;;;;19.40;62.90;;;15.26;100.00;95409.41;4990787;28;19917;-54
2023/09/16 02:49:26;;;;;;;;;;;19.40;62.90;;;15.26;100.00;95406.72;4991011;28;19913;-52
2023/09/16 02:51:51;;;;;;;;;;;19.40;62.90;;;15.22;100.00;95412.97;4989129;28;20004;-53
2023/09/16 02:54:17;;;;;;;;;;;19.40;62.90;;;15.18;100.00;95412.75;4990505;28;20337;-52
2023/09/16 02:56:43;;;;;;;;;;;19.30;62.90;;;15.18;100.00;95406.59;4988610;28;20288;-50
2023/09/16 02:59:09;;;;;;;;;;;19.30;62.90;;;15.16;100.00;95408.78;4977845;28;19964;-47
2023/09/16 03:01:35;;;;;;;;;;;19.30;63.00;;;15.13;100.00;95404.78;4990419;28;19910;-51
2023/09/16 03:04:00;;;;;;;;;;;19.30;63.00;;;15.09;100.00;95405.69;4989789;28;19909;-50
2023/09/16 03:06:26;;;;;;;;;;;19.30;63.10;;;15.03;100.00;95403.09;4990178;28;19975;-51
2023/09/16 03:08:52;;;;;;;;;;;19.20;63.00;;;15.03;100.00;95405.78;4989649;28;19915;-51
2023/09/16 03:11:18;;;;;;;;;;;19.20;63.10;;;14.99;100.00;95402.13;4990168;28;19913;-53
2023/09/16 03:13:44;;;;;;;;;;;19.20;63.10;;;14.93;100.00;95405.97;4990283;28;19909;-50
2023/09/16 03:16:20;;;;;;;;;;;19.20;63.10;;;14.79;100.00;95405.97;4989701;28;20737;-49
2023/09/16 03:18:49;;;;;;;;;;;19.10;63.00;;;14.76;100.00;95405.75;4990601;28;20008;-45
2023/09/16 03:21:17;;;;;;;;;;;19.00;63.10;;;14.74;100.00;95405.25;4993339;28;19963;-48
2023/09/16 03:23:44;;;;;;;;;;;19.00;63.20;;;14.70;100.00;95402.38;5010291;28;19958;-50
2023/09/16 03:26:12;;;;;;;;;;;19.00;63.20;;;14.71;100.00;95401.28;5010759;28;20263;-53
2023/09/16 03:28:44;;;;;;;;;;;18.90;63.30;;;14.69;100.00;95398.09;5008446;28;19909;-46
2023/09/16 03:31:09;;;;;;;;;;;18.90;63.40;;;14.70;100.00;95391.66;5013309;28;19994;-49
2023/09/16 03:33:36;;;;;;;;;;;18.90;63.50;;;14.67;100.00;95394.13;5006478;28;20071;-49
2023/09/16 03:36:04;;;;;;;;;;;18.80;63.50;;;14.63;100.00;95401.16;5013535;28;19909;-53
2023/09/16 03:38:32;;;;;;;;;;;18.80;63.60;;;14.63;100.00;95398.47;5010808;28;19916;-48
2023/09/16 03:40:58;;;;;;;;;;;18.80;63.70;;;14.60;100.00;95402.53;5008886;28;19913;-51
2023/09/16 03:43:25;;;;;;;;;;;18.70;63.70;;;14.56;100.00;95399.66;5012937;28;19916;-52
2023/09/16 03:45:51;;;;;;;;;;;18.70;63.70;;;14.53;100.00;95392.19;5009092;28;19916;-46
2023/09/16 03:48:16;;;;;;;;;;;18.70;63.80;;;14.50;100.00;95390.06;5013285;28;19909;-51
2023/09/16 03:50:42;;;;;;;;;;;18.70;63.90;;;14.49;100.00;95388.47;5008896;28;19921;-53
2023/09/16 03:53:09;;;;;;;;;;;18.70;63.80;;;14.46;100.00;95385.59;5007498;28;19917;-53
2023/09/16 03:55:35;;;;;;;;;;;18.60;63.80;;;14.43;100.00;95384.28;4996071;28;19913;-51
2023/09/16 03:58:02;;;;;;;;;;;18.60;63.90;;;14.40;100.00;95378.72;5006492;28;20283;-52
2023/09/16 04:00:28;;;;;;;;;;;18.60;63.90;;;14.38;100.00;95376.31;5012885;28;19916;-50
2023/09/16 04:02:54;;;;;;;;;;;18.50;63.90;;;14.35;100.00;95380.41;5010221;28;19909;-51
2023/09/16 04:05:20;;;;;;;;;;;18.50;63.90;;;14.32;100.00;95377.50;5013253;28;19916;-46
2023/09/16 04:07:47;;;;;;;;;;;18.40;64.00;;;14.31;100.00;95386.63;5023893;23;19971;-48
2023/09/16 04:10:13;;;;;;;;;;;18.40;64.10;;;14.26;100.00;95384.06;5001754;28;19952;-49
2023/09/16 04:12:38;;;;;;;;;;;18.40;64.10;;;14.25;100.00;95385.91;5012121;28;20283;-45
2023/09/16 04:15:05;;;;;;;;;;;18.40;64.20;;;14.23;100.00;95390.78;5003001;28;19909;-44
2023/09/16 04:17:31;;;;;;;;;;;18.30;64.20;;;14.22;100.00;95385.72;5020900;28;19909;-46
2023/09/16 04:19:57;;;;;;;;;;;18.30;64.20;;;14.19;100.00;95381.72;5032072;28;19913;-46
2023/09/16 04:22:23;;;;;;;;;;;18.30;64.30;;;14.15;100.00;95379.94;5024620;28;20392;-45
2023/09/16 04:24:49;;;;;;;;;;;18.30;64.30;;;14.13;100.00;95385.56;5032609;28;19913;-46
2023/09/16 04:27:15;;;;;;;;;;;18.30;64.30;;;14.09;100.00;95371.97;5011504;28;20054;-46
2023/09/16 04:29:40;;;;;;;;;;;18.20;64.30;;;14.09;100.00;95380.00;5031847;28;19917;-44
2023/09/16 04:32:06;;;;;;;;;;;18.20;64.40;;;14.07;100.00;95376.03;5031762;28;20359;-45
2023/09/16 04:34:33;;;;;;;;;;;18.20;64.40;;;14.06;100.00;95361.03;5025094;28;19917;-44
2023/09/16 04:36:59;;;;;;;;;;;18.10;64.50;;;14.07;100.00;95367.97;5031946;28;20267;-49
2023/09/16 04:39:28;;;;;;;;;;;18.10;65.30;;;14.05;100.00;95370.97;5024564;28;20059;-45
2023/09/16 04:41:54;;;;;;;;;;;18.10;65.40;;;14.05;100.00;95362.13;5032128;28;20015;-44
2023/09/16 04:44:20;;;;;;;;;;;18.10;64.70;;;14.05;100.00;95362.13;5022840;28;20011;-45
2023/09/16 04:46:46;;;;;;;;;;;18.10;64.80;;;14.03;100.00;95358.94;5030003;28;19908;-45
2023/09/16 04:49:12;;;;;;;;;;;18.10;64.80;;;14.02;100.00;95362.72;5031692;28;19912;-47
2023/09/16 04:51:39;;;;;;;;;;;18.10;64.80;;;13.98;100.00;95362.50;5025969;28;19953;-47
2023/09/16 04:54:07;;;;;;;;;;;18.10;64.90;;;13.97;100.00;95366.25;5029233;28;19909;-44
2023/09/16 04:56:36;;;;;;;;;;;18.10;64.90;;;13.96;100.00;95359.31;5027142;28;19936;-47
2023/09/16 04:59:02;;;;;;;;;;;18.00;64.90;;;13.94;100.00;95364.16;5023362;28;19909;-45
2023/09/16 05:01:30;;;;;;;;;;;18.00;64.90;;;13.92;100.00;95363.69;5031802;28;19920;-45
2023/09/16 05:03:59;;;;;;;;;;;18.00;64.90;;;13.93;100.00;95364.47;5024969;28;19908;-45
2023/09/16 05:06:25;;;;;;;;;;;18.10;65.00;;;13.95;100.00;95362.31;5030461;28;20351;-45
2023/09/16 05:08:54;;;;;;;;;;;18.10;65.00;;;13.94;100.00;95356.13;5023393;28;19909;-45
2023/09/16 05:11:20;;;;;;;;;;;18.00;64.90;;;13.95;100.00;95360.41;5008893;28;20004;-45
2023/09/16 05:13:45;;;;;;;;;;;18.00;65.00;;;13.97;100.00;95350.19;5031602;28;20435;-45
2023/09/16 05:16:12;;;;;;;;;;;18.10;65.10;;;13.96;100.00;95340.56;5024523;28;20252;-44
2023/09/16 05:18:38;;;;;;;;;;;18.10;65.10;;;13.95;100.00;95355.06;5026925;28;19913;-44
2023/09/16 05:21:03;;;;;;;;;;;18.10;65.00;;;13.94;100.00;95345.41;5028031;28;19909;-44
2023/09/16 05:23:34;;;;;;;;;;;18.10;65.00;;;13.93;100.00;95343.84;5028488;28;20019;-44
2023/09/16 05:26:00;;;;;;;;;;;18.10;65.00;;;13.93;100.00;95341.16;5031040;28;19909;-45
2023/09/16 05:28:27;;;;;;;;;;;18.10;65.00;;;13.94;100.00;95344.63;5019794;28;19921;-49
2023/09/16 05:30:57;;;;;;;;;;;18.10;65.00;;;13.93;100.00;95343.03;5031160;28;20279;-47
2023/09/16 05:33:24;;;;;;;;;;;18.10;65.00;;;13.91;100.00;95342.53;5022986;28;19959;-48
2023/09/16 05:35:51;;;;;;;;;;;18.10;65.00;;;13.90;100.00;95349.78;5026854;28;20367;-47
2023/09/16 05:38:17;;;;;;;;;;;18.10;65.00;;;13.88;100.00;95338.53;5009564;28;19937;-44
2023/09/16 05:40:43;;;;;;;;;;;18.20;64.90;;;13.87;100.00;95345.78;5029685;28;19955;-50
2023/09/16 05:43:09;;;;;;;;;;;18.20;64.90;;;13.87;100.00;95342.31;5030368;28;20053;-44
2023/09/16 05:45:36;;;;;;;;;;;18.20;64.90;;;13.88;100.00;95349.25;5022283;28;20634;-47
2023/09/16 05:48:04;;;;;;;;;;;18.20;65.00;;;13.89;100.00;95345.50;5030815;28;19913;-49
2023/09/16 05:50:30;;;;;;;;;;;18.20;65.00;;;13.93;100.00;95351.88;5030130;28;20387;-45
2023/09/16 05:52:56;;;;;;;;;;;18.30;65.00;;;13.97;100.00;95352.06;5023103;28;19909;-47
2023/09/16 05:55:22;;;;;;;;;;;18.20;65.00;;;14.03;100.00;95349.03;5030596;28;19909;-47
2023/09/16 05:57:49;;;;;;;;;;;18.30;65.10;;;14.10;100.00;95344.13;5024905;28;19913;-51
2023/09/16 06:00:15;;;;;;;;;;;18.30;65.10;;;14.18;100.00;95347.22;5030115;28;19912;-47
2023/09/16 06:02:41;;;;;;;;;;;18.40;65.20;;;14.24;100.00;95351.41;5027075;28;20067;-47
2023/09/16 06:05:08;;;;;;;;;;;18.50;65.30;;;14.33;100.00;95345.06;5027736;28;19981;-46
2023/09/16 06:07:41;;;;;;;;;;;18.60;65.30;;;14.41;100.00;95340.13;5022026;28;19917;-44
2023/09/16 06:10:08;;;;;;;;;;;18.60;65.30;;;14.48;100.00;95344.03;5014620;28;19982;-49
2023/09/16 06:12:34;;;;;;;;;;;18.70;65.30;;;14.55;100.00;95343.66;5012695;28;20049;-47
2023/09/16 06:15:00;;;;;;;;;;;18.80;65.40;;;14.60;100.00;95337.41;5025855;28;19944;-46
2023/09/16 06:17:25;;;;;;;;;;;18.90;65.40;;;14.67;100.00;95351.25;5026776;28;20031;-46
2023/09/16 06:19:54;;;;;;;;;;;19.00;65.30;;;14.72;100.00;95349.25;5003280;28;20004;-48
2023/09/16 06:22:22;;;;;;;;;;;19.00;65.30;;;14.77;100.00;95340.31;5016194;28;19916;-47
2023/09/16 06:24:49;;;;;;;;;;;19.10;65.30;;;14.86;100.00;95343.91;5015846;28;20298;-46
2023/09/16 06:27:14;;;;;;;;;;;19.30;65.30;;;14.98;100.00;95348.78;5017871;28;19916;-44
2023/09/16 06:29:41;;;;;;;;;;;19.40;65.20;;;15.12;100.00;95341.53;5029808;28;20792;-47
2023/09/16 06:32:07;;;;;;;;;;;19.60;65.10;;;15.37;100.00;95340.19;5030738;28;20000;-47
2023/09/16 06:34:34;;;;;;;;;;;19.90;65.00;;;15.64;100.00;95344.75;5024853;28;19996;-45
2023/09/16 06:37:00;;;;;;;;;;;20.30;65.00;;;15.87;100.00;95342.91;5030542;28;19916;-44
2023/09/16 06:39:26;;;;;;;;;;;20.60;64.80;;;16.12;100.00;95336.16;5021970;28;19955;-45
2023/09/16 06:41:52;;;;;;;;;;;21.00;64.60;;;16.41;100.00;95340.28;5017966;28;20000;-44
2023/09/16 06:44:17;;;;;;;;;;;21.40;64.30;;;16.48;100.00;95335.25;5026992;28;19917;-48
2023/09/16 06:46:43;;;;;;;;;;;21.70;63.90;;;16.63;100.00;95326.00;5018876;28;19909;-45
2023/09/16 06:49:09;;;;;;;;;;;22.00;63.40;;;17.01;100.00;95323.66;5029729;28;20415;-44
2023/09/16 06:51:35;;;;;;;;;;;22.30;63.00;;;17.06;100.00;95323.53;5022243;28;20004;-45
2023/09/16 06:54:01;;;;;;;;;;;22.50;62.60;;;17.35;100.00;95332.94;5027581;28;19909;-45
2023/09/16 06:56:28;;;;;;;;;;;22.80;62.30;;;17.68;100.00;95329.84;5033275;28;19923;-51
2023/09/16 06:58:56;;;;;;;;;;;23.20;62.00;;;17.95;100.00;95337.63;5028010;28;19909;-45
2023/09/16 07:01:23;;;;;;;;;;;23.40;61.60;;;18.21;100.00;95348.44;5033997;28;19908;-46
2023/09/16 07:03:49;;;;;;;;;;;23.80;61.30;;;18.54;100.00;95350.59;5027812;28;20321;-46
2023/09/16 07:06:14;;;;;;;;;;;24.10;61.00;;;18.99;100.00;95354.78;5033858;28;19916;-44
2023/09/16 07:08:40;;;;;;;;;;;24.40;60.80;;;19.48;99.76;95355.19;5030803;28;19951;-45
2023/09/16 07:11:06;;;;;;;;;;;24.80;60.50;;;19.99;96.72;95359.47;5017129;28;20427;-48
2023/09/16 07:13:32;;;;;;;;;;;25.30;60.30;;;20.45;89.67;95354.97;5019162;28;20374;-45
2023/09/16 07:15:58;;;;;;;;;;;25.80;60.00;;;20.56;83.53;95360.78;5022523;28;19912;-45
2023/09/16 07:18:24;;;;;;;;;;;26.10;59.50;;;20.61;82.37;95346.25;5031917;28;19952;-46
2023/09/16 07:20:49;;;;;;;;;;;26.40;58.80;;;20.70;80.39;95353.16;5026968;28;19948;-47
2023/09/16 07:23:16;;;;;;;;;;;26.60;58.10;;;20.88;79.81;95351.06;5026525;28;19908;-48
2023/09/16 07:25:42;;;;;;;;;;;26.90;57.60;;;21.08;79.30;95349.38;5033478;28;20015;-46
2023/09/16 07:28:08;;;;;;;;;;;27.00;57.10;;;21.30;79.43;95350.88;5021620;28;19995;-47
2023/09/16 07:30:34;;;;;;;;;;;27.20;56.70;;;21.61;79.93;95350.31;5033305;28;19991;-48
2023/09/16 07:33:00;;;;;;;;;;;27.40;56.40;;;21.93;78.65;95353.97;5028526;28;19909;-46
2023/09/16 07:35:27;;;;;;;;;;;27.70;56.30;;;22.36;77.01;95352.53;5033255;28;19947;-45
2023/09/16 07:37:52;;;;;;;;;;;27.90;56.20;;;22.55;75.32;95360.03;5032008;28;19909;-50
2023/09/16 07:40:18;;;;;;;;;;;28.20;55.80;;;22.55;73.44;95359.25;5022873;28;19962;-47
2023/09/16 07:42:44;;;;;;;;;;;28.60;55.40;;;22.79;71.37;95363.78;5033454;28;19916;-45
2023/09/16 07:45:10;;;;;;;;;;;28.90;54.80;;;23.05;71.12;95366.00;5028240;28;19913;-46
2023/09/16 07:47:36;;;;;;;;;;;29.10;54.40;;;23.14;70.31;95368.56;5016956;28;19909;-46
2023/09/16 07:50:03;;;;;;;;;;;29.10;54.20;;;23.26;69.63;95382.06;5033054;28;19920;-47
2023/09/16 07:52:32;;;;;;;;;;;29.20;54.00;;;23.31;69.70;95390.72;5027202;28;19908;-49
2023/09/16 07:54:59;;;;;;;;;;;29.30;54.00;;;23.42;70.11;95390.22;5033028;28;19913;-46
2023/09/16 07:57:25;;;;;;;;;;;29.30;54.00;;;23.36;68.65;95389.69;5027816;28;19909;-48
2023/09/16 07:59:51;;;;;;;;;;;29.20;53.90;;;23.06;70.04;95381.16;5032726;28;20370;-48
2023/09/16 08:02:17;;;;;;;;;;;29.10;53.50;;;22.90;70.14;95391.19;5032743;28;20021;-49
2023/09/16 08:04:43;;;;;;;;;;;28.90;53.20;;;22.69;71.62;95397.66;5027321;28;19940;-49
2023/09/16 08:07:08;;;;;;;;;;;28.70;53.00;;;22.53;71.91;95408.47;5031642;28;19968;-48
2023/09/16 08:09:34;;;;;;;;;;;28.60;52.90;;;22.36;72.65;95395.94;5022736;28;19917;-48
2023/09/16 08:12:00;;;;;;;;;;;28.50;53.40;;;22.25;73.36;95405.72;5019012;28;19909;-48
2023/09/16 08:14:26;;;;;;;;;;;28.30;52.70;;;21.97;74.15;95402.94;5032657;28;19909;-48
2023/09/16 08:16:56;;;;;;;;;;;28.20;52.50;;;21.74;75.06;95399.09;5021325;28;19913;-48
2023/09/16 08:19:22;;;;;;;;;;;28.20;52.80;;;21.90;73.98;95398.06;5014396;28;20066;-50
2023/09/16 08:21:49;;;;;;;;;;;28.30;52.00;;;21.93;73.81;95397.38;5026276;28;19999;-47
2023/09/16 08:24:15;;;;;;;;;;;28.30;51.90;;;22.00;73.73;95402.25;5030016;28;19931;-48
2023/09/16 08:26:40;;;;;;;;;;;28.50;51.80;;;21.99;73.92;95389.00;5030134;28;20614;-47
2023/09/16 08:29:06;;;;;;;;;;;28.60;51.50;;;21.97;73.19;95392.06;5028360;28;19908;-52
2023/09/16 08:31:32;;;;;;;;;;;28.60;51.40;;;21.86;72.06;95394.44;5022218;28;19909;-46
2023/09/16 08:34:04;;;;;;;;;;;28.60;51.50;;;22.09;73.37;95388.53;5026761;28;19958;-46
2023/09/16 08:36:29;;;;;;;;;;;28.50;51.40;;;22.12;72.80;95396.75;5032049;28;19908;-46
2023/09/16 08:38:55;;;;;;;;;;;28.50;51.30;;;22.09;72.87;95407.50;5027327;28;19913;-52
2023/09/16 08:41:45;;;;;;;;;;;28.50;51.30;;;22.26;71.53;95401.88;5031037;28;20291;-47
2023/09/16 08:44:14;;;;;;;;;;;28.70;51.00;;;22.59;71.67;95403.56;5030821;28;20407;-47
2023/09/16 08:46:50;;;;;;;;;;;28.90;50.80;;;23.01;69.75;95403.16;5024684;28;20306;-48
2023/09/16 08:49:20;;;;;;;;;;;29.20;50.70;;;23.08;68.19;95408.78;5030338;28;20356;-47
2023/09/16 08:51:48;;;;;;;;;;;29.50;50.40;;;23.09;68.32;95404.91;5024030;28;19931;-46
2023/09/16 08:54:18;;;;;;;;;;;29.70;50.00;;;23.34;67.69;95408.25;5028321;28;20287;-46
2023/09/16 08:56:45;;;;;;;;;;;30.00;49.70;;;23.56;67.58;95401.41;5027452;28;19909;-47
2023/09/16 08:59:11;;;;;;;;;;;30.30;49.40;;;23.85;65.94;95400.19;5008416;28;19979;-47
2023/09/16 09:01:37;;;;;;;;;;;30.60;49.10;;;24.02;66.44;95397.06;5030889;28;20386;-48
2023/09/16 09:04:04;;;;;;;;;;;30.80;48.80;;;24.19;64.37;95395.09;5021172;28;19948;-51
2023/09/16 09:06:30;;;;;;;;;;;31.00;48.70;;;23.99;64.09;95383.41;5031547;28;20355;-48
2023/09/16 09:08:56;;;;;;;;;;;31.00;48.30;;;23.95;65.24;95380.59;5025110;28;19909;-49
2023/09/16 09:11:25;;;;;;;;;;;31.00;48.10;;;23.93;63.94;95377.44;5005857;28;20326;-50
2023/09/16 09:13:51;;;;;;;;;;;31.00;48.00;;;23.34;66.15;95391.97;5031377;28;19917;-49
2023/09/16 09:16:20;;;;;;;;;;;31.00;47.90;;;22.93;66.97;95390.50;5024328;28;20330;-49
2023/09/16 09:18:48;;;;;;;;;;;30.90;47.80;;;22.73;69.51;95384.94;5027310;28;19935;-48
2023/09/16 09:21:15;;;;;;;;;;;30.70;47.70;;;23.25;68.11;95388.63;5021769;28;19915;-48
2023/09/16 09:23:41;;;;;;;;;;;30.70;47.80;;;23.48;67.62;95392.31;5021212;28;19913;-45
2023/09/16 09:26:07;;;;;;;;;;;30.60;47.90;;;23.78;66.25;95379.06;5030908;28;19908;-47
2023/09/16 09:28:33;;;;;;;;;;;30.50;48.10;;;23.53;66.76;95385.81;5020009;28;20313;-49
2023/09/16 09:31:00;;;;;;;;;;;30.40;48.10;;;23.75;66.91;95376.25;5031597;28;19913;-46
2023/09/16 09:33:28;;;;;;;;;;;30.40;48.00;;;24.00;65.93;95369.47;5023541;28;19908;-47
2023/09/16 09:36:12;;;;;;;;;;;30.60;48.00;;;24.20;64.52;95364.03;5030267;28;19943;-46
2023/09/16 09:38:42;;;;;;;;;;;31.00;47.80;;;24.07;65.59;95374.25;5026589;28;19920;-46
2023/09/16 09:41:09;;;;;;;;;;;31.10;47.50;;;24.17;65.94;95376.41;5017876;28;19916;-47
2023/09/16 09:43:35;;;;;;;;;;;31.20;47.40;;;23.67;67.19;95372.56;5030133;28;19980;-48
2023/09/16 09:46:02;;;;;;;;;;;31.20;47.20;;;23.82;67.27;95367.47;5017208;28;19916;-49
2023/09/16 09:48:33;;;;;;;;;;;31.10;47.10;;;24.11;67.07;95382.50;5028648;28;19912;-49
2023/09/16 09:51:00;;;;;;;;;;;31.00;47.10;;;24.14;66.59;95376.34;5017003;28;20379;-47
2023/09/16 09:53:28;;;;;;;;;;;31.00;47.20;;;24.17;66.59;95375.63;5026841;28;19909;-51
2023/09/16 09:55:54;;;;;;;;;;;30.90;47.10;;;24.05;66.33;95371.09;5029322;28;20007;-46
2023/09/16 09:58:21;;;;;;;;;;;30.80;47.00;;;24.03;67.59;95373.38;5023783;28;19961;-49
2023/09/16 10:00:50;;;;;;;;;;;30.80;46.90;;;24.06;67.59;95374.59;5024745;28;20367;-46
2023/09/16 10:03:19;;;;;;;;;;;30.80;47.00;;;24.11;67.04;95375.13;5024705;28;19913;-46
2023/09/16 10:05:45;;;;;;;;;;;30.80;47.00;;;24.46;65.94;95371.59;5030442;28;19996;-47
2023/09/16 10:08:11;;;;;;;;;;;30.90;46.90;;;24.75;65.98;95367.47;5029292;28;20007;-47
2023/09/16 10:10:37;;;;;;;;;;;31.30;46.80;;;24.99;64.99;95362.84;5024982;28;19916;-48
2023/09/16 10:13:03;;;;;;;;;;;31.70;46.60;;;25.38;63.77;95349.91;5030206;28;19999;-52
2023/09/16 10:15:35;;;;;;;;;;;32.20;46.30;;;25.57;62.55;95351.75;5022399;28;19912;-50
2023/09/16 10:18:03;;;;;;;;;;;32.70;45.80;;;25.73;62.26;95352.41;5029896;28;20003;-49
2023/09/16 10:20:34;;;;;;;;;;;33.20;45.30;;;25.86;61.09;95352.22;5022548;28;19936;-53
2023/09/16 10:23:00;;;;;;;;;;;33.70;44.80;;;26.46;59.67;95357.66;5020621;28;19938;-52
2023/09/16 10:25:29;;;;;;;;;;;34.20;44.50;;;27.29;57.78;95354.66;5021020;28;19908;-51
2023/09/16 10:28:07;;;;;;;;;;;34.80;44.30;;;27.48;56.12;95352.84;5014715;28;20007;-47
2023/09/16 10:30:36;;;;;;;;;;;35.30;43.90;;;27.60;55.39;95355.28;5016585;28;19988;-49
2023/09/16 10:33:08;;;;;;;;;;;35.40;43.50;;;27.68;55.73;95351.47;5024951;28;19953;-50
2023/09/16 10:35:40;;;;;;;;;;;35.20;43.50;;;27.33;56.31;95347.28;5020924;28;19991;-46
2023/09/16 10:38:08;;;;;;;;;;;35.00;43.50;;;27.25;56.32;95348.38;5020113;28;19908;-52
2023/09/16 10:40:35;;;;;;;;;;;34.80;43.50;;;27.26;55.54;95352.69;5022125;28;19991;-47
2023/09/16 10:43:02;;;;;;;;;;;34.70;43.30;;;27.27;56.05;95361.69;5033212;28;19948;-47
2023/09/16 10:45:28;;;;;;;;;;;34.70;43.40;;;27.18;56.04;95360.03;5028201;28;19912;-47
2023/09/16 10:47:54;;;;;;;;;;;34.70;43.20;;;27.50;55.82;95351.31;5034064;28;19916;-46
2023/09/16 10:50:30;;;;;;;;;;;34.70;43.10;;;27.90;55.30;95350.44;5033370;28;20355;-47
2023/09/16 10:53:12;;;;;;;;;;;34.80;43.20;;;28.02;52.44;95349.34;5027765;28;20333;-50
2023/09/16 10:55:47;;;;;;;;;;;34.80;43.10;;;28.13;53.73;95350.19;5030228;28;19919;-47
2023/09/16 10:58:47;;;;;;;;;;;35.10;43.10;;;28.53;51.87;95350.38;5032145;28;19936;-46
2023/09/16 11:01:27;;;;;;;;;;;35.50;43.00;;;28.70;51.90;95348.88;5033836;28;19957;-47
2023/09/16 11:04:07;;;;;;;;;;;35.70;43.00;;;28.92;50.70;95346.97;5027678;28;19909;-47
2023/09/16 11:06:33;;;;;;;;;;;36.00;42.80;;;29.00;51.04;95348.56;5032585;28;19923;-46
2023/09/16 11:08:59;;;;;;;;;;;36.20;42.50;;;29.43;49.51;95348.63;5027351;28;19917;-46
2023/09/16 11:11:27;;;;;;;;;;;36.40;42.30;;;29.34;48.27;95337.25;5032982;28;19917;-47
2023/09/16 11:13:54;;;;;;;;;;;36.60;42.00;;;29.25;48.57;95335.69;5027909;28;19912;-47